Time;durP1;ratioP1;P1;durP2;ratioP2;P2;SDS_P1;SDS_P2;PMS_P1;PMS_P2;Temp;Humidity;BMP_temperature;BMP_pressure;BME280_temperature;BME280_humidity;BME280_pressure;Samples;Min_cycle;Max_cycle;Signal;HPM_P1;HPM_P2
2022/08/19 00:00:19;;;;;;;14.02;7.43;;;;;;;26.16;42.28;98870.28;5033667;28;20025;-74
2022/08/19 00:02:46;;;;;;;11.57;8.18;;;;;;;26.15;42.44;98883.00;5051802;28;20568;-74
2022/08/19 00:05:14;;;;;;;8.63;6.75;;;;;;;26.17;42.09;98869.03;5046477;28;20029;-74
2022/08/19 00:07:42;;;;;;;10.63;7.10;;;;;;;26.03;41.86;98866.59;5051399;28;20029;-74
2022/08/19 00:10:10;;;;;;;10.15;6.60;;;;;;;25.99;42.03;98874.53;5033725;28;20096;-74
2022/08/19 00:12:37;;;;;;;6.55;5.55;;;;;;;26.05;41.66;98870.63;5051784;28;20017;-74
2022/08/19 00:15:04;;;;;;;12.43;6.55;;;;;;;26.02;41.47;98871.56;5051524;28;20017;-74
2022/08/19 00:17:30;;;;;;;7.10;6.22;;;;;;;26.38;40.67;98866.00;5051351;28;20024;-75
2022/08/19 00:19:55;;;;;;;10.88;7.88;;;;;;;26.28;41.37;98859.31;5033697;28;20326;-74
2022/08/19 00:22:21;;;;;;;12.77;7.63;;;;;;;26.33;41.81;98864.50;5033510;28;20029;-74
2022/08/19 00:24:47;;;;;;;9.25;7.82;;;;;;;26.27;42.78;98863.44;5051150;28;20458;-74
2022/08/19 00:27:13;;;;;;;12.50;7.15;;;;;;;26.14;43.46;98864.22;5051285;28;20029;-74
2022/08/19 00:29:39;;;;;;;10.00;7.18;;;;;;;26.03;43.62;98852.28;5033400;28;20025;-74
2022/08/19 00:32:06;;;;;;;7.18;6.50;;;;;;;25.86;43.19;98860.97;5033486;28;20021;-74
2022/08/19 00:34:32;;;;;;;10.75;8.43;;;;;;;26.02;42.21;98853.53;5033353;28;20021;-74
2022/08/19 00:36:57;;;;;;;10.98;7.30;;;;;;;26.03;41.97;98858.00;5051122;28;20028;-74
2022/08/19 00:39:23;;;;;;;8.82;7.22;;;;;;;26.14;41.32;98840.50;5033196;28;20037;-74
2022/08/19 00:41:51;;;;;;;7.28;6.57;;;;;;;26.17;40.73;98848.97;5051076;28;20025;-74
2022/08/19 00:44:23;;;;;;;8.57;6.05;;;;;;;26.25;40.05;98855.31;5050975;28;20419;-74
2022/08/19 00:46:52;;;;;;;10.00;6.68;;;;;;;26.33;39.73;98847.28;5033031;28;20499;-74
2022/08/19 00:49:26;;;;;;;9.57;6.60;;;;;;;26.34;39.97;98843.94;5047335;28;20029;-74
2022/08/19 00:52:00;;;;;;;6.18;5.55;;;;;;;26.49;40.17;98844.28;5030194;28;20025;-74
2022/08/19 00:54:26;;;;;;;8.48;7.22;;;;;;;26.21;41.60;98843.16;5031193;28;20021;-74
2022/08/19 00:56:52;;;;;;;9.40;6.22;;;;;;;26.44;41.63;98836.28;5041314;28;20037;-74
2022/08/19 00:59:19;;;;;;;7.68;6.85;;;;;;;26.50;41.72;98842.25;5050985;28;20457;-74
2022/08/19 01:01:46;;;;;;;9.18;7.35;;;;;;;26.42;42.17;98844.53;5050737;28;20048;-74
2022/08/19 01:04:12;;;;;;;8.55;7.05;;;;;;;25.99;42.97;98848.72;5051033;28;20096;-74
2022/08/19 01:06:40;;;;;;;10.73;6.70;;;;;;;25.64;44.25;98855.88;5032794;28;20086;-74
2022/08/19 01:09:06;;;;;;;7.15;6.45;;;;;;;25.86;44.32;98848.72;5033082;28;20021;-74
2022/08/19 01:11:38;;;;;;;8.57;6.93;;;;;;;25.88;43.64;98852.72;5036872;28;20403;-74
2022/08/19 01:14:05;;;;;;;10.93;7.60;;;;;;;26.01;43.62;98846.22;5054947;28;20029;-74
2022/08/19 01:16:32;;;;;;;11.65;6.85;;;;;;;26.11;42.88;98847.94;5054585;28;20033;-74
2022/08/19 01:18:58;;;;;;;9.27;7.45;;;;;;;25.97;43.40;98842.66;5037064;28;20496;-74
2022/08/19 01:21:43;;;;;;;9.93;8.02;;;;;;;25.75;43.47;98849.03;5054868;28;20104;-74
2022/08/19 01:24:09;;;;;;;13.82;8.57;;;;;;;25.56;43.99;98850.81;5036807;28;20067;-74
2022/08/19 01:26:41;;;;;;;8.50;7.63;;;;;;;25.48;44.51;98858.78;5036634;28;20092;-74
2022/08/19 01:29:08;;;;;;;9.02;6.82;;;;;;;25.22;45.05;98848.03;5054554;28;20049;-74
2022/08/19 01:31:34;;;;;;;8.15;7.13;;;;;;;24.78;46.32;98865.53;5054754;28;20025;-74
2022/08/19 01:34:03;;;;;;;10.02;8.40;;;;;;;24.34;47.36;98857.19;5048733;28;20025;-74
2022/08/19 01:36:28;;;;;;;9.38;7.70;;;;;;;24.10;47.96;98854.47;5054390;28;20029;-74
2022/08/19 01:38:54;;;;;;;10.02;8.23;;;;;;;23.73;48.99;98849.97;5053880;28;20037;-73
2022/08/19 01:41:19;;;;;;;9.30;8.15;;;;;;;23.66;49.79;98854.59;5054401;28;20120;-74
2022/08/19 01:43:45;;;;;;;14.07;8.25;;;;;;;23.93;49.18;98858.50;5054404;28;20025;-74
2022/08/19 01:46:11;;;;;;;11.88;7.57;;;;;;;24.26;48.30;98858.59;5036288;28;20102;-74
2022/08/19 01:48:42;;;;;;;10.50;8.10;;;;;;;24.47;47.76;98853.63;5036578;28;20029;-74
2022/08/19 01:51:09;;;;;;;9.68;8.63;;;;;;;24.51;47.35;98863.72;5051020;28;20492;-74
2022/08/19 01:53:36;;;;;;;8.23;7.43;;;;;;;24.60;47.04;98865.16;5054326;28;20052;-74
2022/08/19 01:56:02;;;;;;;9.70;6.65;;;;;;;24.71;46.59;98862.81;5036127;28;20020;-74
2022/08/19 01:58:35;;;;;;;10.18;7.40;;;;;;;25.00;46.74;98875.63;5036333;28;20499;-74
2022/08/19 02:01:02;;;;;;;10.52;7.40;;;;;;;25.01;46.87;98878.03;5036071;28;20028;-74
2022/08/19 02:03:28;;;;;;;8.77;7.82;;;;;;;24.50;47.80;98872.75;5051717;28;20070;-74
2022/08/19 02:06:02;;;;;;;9.02;8.02;;;;;;;23.93;49.61;98873.59;5035780;28;20032;-74
2022/08/19 02:08:29;;;;;;;17.95;8.80;;;;;;;23.74;50.28;98880.13;5036012;28;20021;-74
2022/08/19 02:10:55;;;;;;;11.32;8.25;;;;;;;23.41;50.79;98875.88;5053894;28;20100;-74
2022/08/19 02:13:21;;;;;;;11.88;8.30;;;;;;;23.39;51.13;98880.41;5036082;28;20503;-74
2022/08/19 02:15:47;;;;;;;16.83;9.15;;;;;;;23.38;50.64;98888.16;5053407;28;20028;-74
2022/08/19 02:18:13;;;;;;;11.80;9.18;;;;;;;23.28;50.69;98878.56;5050849;28;20021;-74
2022/08/19 02:20:40;;;;;;;14.38;8.50;;;;;;;23.28;50.73;98889.16;5053599;28;20030;-74
2022/08/19 02:23:07;;;;;;;16.35;8.77;;;;;;;23.22;50.89;98885.97;5045054;28;20029;-73
2022/08/19 02:25:32;;;;;;;11.50;7.90;;;;;;;23.40;51.31;98888.50;5026011;28;20574;-73
2022/08/19 02:27:58;;;;;;;16.70;8.23;;;;;;;23.58;51.15;98878.81;5053631;28;20025;-74
2022/08/19 02:30:24;;;;;;;9.80;8.35;;;;;;;23.75;50.25;98888.25;5053466;28;20024;-74
2022/08/19 02:32:50;;;;;;;9.52;8.02;;;;;;;23.67;50.29;98895.34;5053517;28;20092;-74
2022/08/19 02:35:16;;;;;;;8.98;7.80;;;;;;;23.84;49.76;98896.22;5034944;28;20025;-74
2022/08/19 02:40:28;;;;;;;8.77;7.88;;;;;;;24.22;49.64;98897.88;5051848;28;20114;-74
2022/08/19 02:42:54;;;;;;;15.02;7.82;;;;;;;24.23;49.37;98903.13;5052099;28;20460;-76
2022/08/19 02:45:20;;;;;;;8.75;7.35;;;;;;;24.19;49.69;98905.28;5053085;28;20060;-76
2022/08/19 02:47:45;;;;;;;10.30;8.38;;;;;;;24.08;50.15;98910.44;5053106;28;20032;-75
2022/08/19 02:50:12;;;;;;;10.55;8.20;;;;;;;24.04;50.49;98912.56;5053243;28;20029;-74
2022/08/19 02:52:38;;;;;;;17.63;8.93;;;;;;;24.02;50.85;98921.53;5046958;28;20017;-75
2022/08/19 02:55:05;;;;;;;11.90;8.93;;;;;;;23.91;50.59;98927.50;5031559;28;20123;-74
2022/08/19 02:57:31;;;;;;;12.93;8.35;;;;;;;23.78;51.06;98926.53;5046462;28;20484;-75
2022/08/19 02:59:57;;;;;;;8.30;7.45;;;;;;;23.69;50.85;98922.22;5035221;28;20469;-75
2022/08/19 03:02:23;;;;;;;8.02;7.22;;;;;;;23.81;50.43;98919.94;5035090;28;20111;-74
2022/08/19 03:04:48;;;;;;;11.80;8.10;;;;;;;23.92;50.12;98926.25;5046762;28;20067;-73
2022/08/19 03:07:16;;;;;;;11.20;8.63;;;;;;;23.96;49.79;98923.31;5034892;28;20093;-74
2022/08/19 03:09:42;;;;;;;9.55;7.78;;;;;;;23.87;50.28;98925.94;5052838;28;20074;-73
2022/08/19 03:12:08;;;;;;;12.23;8.63;;;;;;;23.77;50.53;98933.47;5034877;28;20100;-74
2022/08/19 03:14:35;;;;;;;10.95;7.90;;;;;;;23.89;50.47;98927.13;5052694;28;20025;-74
2022/08/19 03:17:01;;;;;;;26.80;9.45;;;;;;;23.75;50.40;98933.94;5034590;28;20063;-74
2022/08/19 03:19:27;;;;;;;19.05;7.95;;;;;;;23.71;50.84;98933.16;5052751;28;20016;-74
2022/08/19 03:21:53;;;;;;;40.17;10.43;;;;;;;23.91;50.58;98941.75;5034660;28;20029;-74
2022/08/19 03:24:19;;;;;;;24.95;10.30;;;;;;;23.89;50.26;98946.28;5052609;28;20029;-73
2022/08/19 03:26:57;;;;;;;18.60;9.50;;;;;;;23.93;49.88;98949.88;5052119;28;20436;-74
2022/08/19 03:29:23;;;;;;;24.40;10.07;;;;;;;23.67;50.90;98941.84;5034572;28;20476;-74
2022/08/19 03:31:51;;;;;;;29.90;9.43;;;;;;;23.67;50.96;98938.97;5052352;28;20068;-76
2022/08/19 03:34:27;;;;;;;29.30;9.20;;;;;;;23.77;51.02;98939.19;5033542;28;20044;-75
2022/08/19 03:36:54;;;;;;;27.70;9.45;;;;;;;23.79;51.33;98942.44;5052309;28;20039;-74
2022/08/19 03:39:20;;;;;;;17.45;8.55;;;;;;;23.80;50.64;98946.88;5052185;28;20135;-74
2022/08/19 03:41:49;;;;;;;24.42;8.77;;;;;;;23.90;50.84;98940.16;5034396;28;20025;-73
2022/08/19 03:44:17;;;;;;;16.97;8.80;;;;;;;23.74;50.98;98946.59;5031144;28;20029;-76
2022/08/19 03:46:43;;;;;;;17.33;8.93;;;;;;;24.03;50.14;98959.47;5047318;28;20033;-77
2022/08/19 03:49:09;;;;;;;41.97;9.80;;;;;;;23.90;50.40;98950.75;5051813;28;20029;-76
2022/08/19 03:51:37;;;;;;;26.73;9.45;;;;;;;23.29;51.58;98962.13;5052023;28;20040;-76
2022/08/19 03:54:06;;;;;;;29.02;9.75;;;;;;;23.15;52.11;98957.44;5052101;28;20029;-76
2022/08/19 03:56:34;;;;;;;31.67;11.35;;;;;;;23.60;51.93;98964.00;5051642;28;20087;-76
2022/08/19 03:59:01;;;;;;;34.22;12.63;;;;;;;23.62;51.50;98961.50;5033837;28;20464;-76
2022/08/19 04:01:28;;;;;;;29.20;11.90;;;;;;;22.79;53.71;98958.81;5051533;28;20507;-76
2022/08/19 04:03:56;;;;;;;25.33;10.40;;;;;;;23.22;53.45;98960.13;5051985;28;20033;-76
2022/08/19 04:06:30;;;;;;;20.80;9.60;;;;;;;22.97;53.91;98963.44;5051208;28;20403;-76
2022/08/19 04:08:58;;;;;;;13.48;10.10;;;;;;;22.65;54.27;98965.56;5033559;28;20051;-76
2022/08/19 04:11:27;;;;;;;13.05;9.65;;;;;;;22.82;53.68;98954.31;5051288;28;20021;-76
2022/08/19 04:13:53;;;;;;;15.27;8.85;;;;;;;22.91;53.52;98959.44;5033775;28;20025;-76
2022/08/19 04:16:20;;;;;;;18.75;7.90;;;;;;;23.39;52.23;98963.94;5033487;28;20024;-76
2022/08/19 04:18:47;;;;;;;23.13;8.55;;;;;;;23.37;51.66;98962.78;5051686;28;20037;-76
2022/08/19 04:21:18;;;;;;;14.57;8.48;;;;;;;23.74;50.69;98971.47;5051744;28;20021;-76
2022/08/19 04:23:44;;;;;;;24.77;9.18;;;;;;;23.84;49.69;98973.31;5050293;28;20029;-75
2022/08/19 04:26:19;;;;;;;30.75;13.88;;;;;;;24.21;49.41;98976.28;5050523;28;20029;-76
2022/08/19 04:28:45;;;;;;;26.02;10.60;;;;;;;24.26;49.60;98984.31;5033590;28;20108;-76
2022/08/19 04:31:25;;;;;;;12.85;7.93;;;;;;;23.81;49.81;98985.63;5051247;28;20024;-75
2022/08/19 04:33:59;;;;;;;11.70;8.18;;;;;;;23.39;50.63;98974.56;5050933;28;20013;-76
2022/08/19 04:36:29;;;;;;;11.68;7.75;;;;;;;23.50;50.06;98980.88;5033087;28;20091;-76
2022/08/19 04:38:57;;;;;;;9.63;7.55;;;;;;;23.91;49.52;98983.78;5051073;28;20086;-75
2022/08/19 04:44:08;;;;;;;12.57;7.95;;;;;;;24.36;49.81;98979.59;5047553;28;20071;-75
2022/08/19 04:46:34;;;;;;;14.52;7.82;;;;;;;24.17;50.41;98981.25;5048321;28;20024;-75
2022/08/19 04:49:01;;;;;;;12.30;8.00;;;;;;;24.30;49.40;98972.81;5033133;28;20420;-75
2022/08/19 04:51:27;;;;;;;19.05;8.32;;;;;;;24.15;49.57;98981.69;5050569;28;20484;-75
2022/08/19 04:53:52;;;;;;;12.13;7.70;;;;;;;24.43;49.14;98975.78;5050154;28;20108;-75
2022/08/19 04:56:25;;;;;;;16.13;8.07;;;;;;;24.83;48.81;98980.63;5032112;28;20055;-75
2022/08/19 04:58:51;;;;;;;14.05;8.63;;;;;;;24.41;48.44;98984.81;5047913;28;20029;-75
2022/08/19 05:01:21;;;;;;;20.60;8.45;;;;;;;24.25;48.56;98977.81;5048494;28;20017;-76
2022/08/19 05:03:47;;;;;;;13.70;7.43;;;;;;;24.24;47.97;98990.47;5050854;28;20107;-76
2022/08/19 05:06:14;;;;;;;20.70;9.82;;;;;;;24.10;48.93;98979.34;5047506;28;20021;-75
2022/08/19 05:08:42;;;;;;;20.67;9.15;;;;;;;24.39;48.84;98993.03;5050449;28;20028;-76
2022/08/19 05:11:16;;;;;;;14.65;9.10;;;;;;;24.82;47.44;98991.28;5025079;28;20847;-75
2022/08/19 05:13:42;;;;;;;17.60;8.55;;;;;;;25.00;47.30;98967.97;5037507;28;20734;-75
2022/08/19 05:16:10;;;;;;;18.60;8.10;;;;;;;25.17;47.95;98987.97;5031698;28;20078;-75
2022/08/19 05:24:08;;;;;;;21.60;7.50;;;;;;;25.28;45.43;99002.81;5048446;28;20112;-75
2022/08/19 05:26:45;;;;;;;13.20;7.78;;;;;;;25.55;45.04;98998.88;5032531;28;20104;-76
2022/08/19 05:29:10;;;;;;;12.52;7.47;;;;;;;25.22;46.56;99010.34;5050352;28;20025;-76
2022/08/19 05:31:38;;;;;;;15.82;8.50;;;;;;;25.37;46.42;99008.72;5031844;28;20024;-75
2022/08/19 05:34:04;;;;;;;8.43;7.60;;;;;;;25.14;46.16;99012.56;5029154;28;20423;-73
2022/08/19 05:36:35;;;;;;;11.75;6.68;;;;;;;25.24;46.95;99010.69;5049929;28;20445;-72
2022/08/19 05:39:03;;;;;;;8.40;7.40;;;;;;;25.74;47.26;99008.59;5042201;28;20508;-75
2022/08/19 05:41:30;;;;;;;15.73;7.63;;;;;;;25.72;46.52;99007.44;5028032;28;20048;-72
2022/08/19 05:44:05;;;;;;;9.15;7.68;;;;;;;25.95;45.78;99012.13;5048877;28;20017;-82
2022/08/19 05:46:31;;;;;;;11.25;7.68;;;;;;;26.24;46.05;99004.78;5026021;28;20116;-75
2022/08/19 05:48:57;;;;;;;8.73;7.03;;;;;;;26.26;44.66;99008.00;5031783;28;20029;-74
2022/08/19 05:51:24;;;;;;;10.27;7.70;;;;;;;26.22;43.56;99010.97;5026100;28;20047;-73
2022/08/19 05:53:50;;;;;;;12.30;7.18;;;;;;;26.13;43.45;99016.56;5049676;28;20025;-75
2022/08/19 05:56:17;;;;;;;12.90;6.97;;;;;;;25.77;44.99;99018.34;5049518;28;20096;-74
2022/08/19 05:58:44;;;;;;;14.88;7.45;;;;;;;25.93;44.95;99011.78;5053474;28;20024;-71
2022/08/19 06:01:17;;;;;;;10.23;7.50;;;;;;;25.90;45.62;99013.47;5035799;28;20017;-77
2022/08/19 06:03:43;;;;;;;22.13;7.70;;;;;;;25.85;44.35;99002.56;5052863;28;20483;-76
2022/08/19 06:06:10;;;;;;;23.52;8.15;;;;;;;25.80;45.46;99008.84;5035374;28;20017;-74
2022/08/19 06:08:38;;;;;;;13.73;8.23;;;;;;;26.05;44.91;99016.75;5036309;28;20035;-81
2022/08/19 06:11:24;;;;;;;12.02;7.63;;;;;;;26.00;44.28;99019.34;5035708;28;20024;-79
2022/08/19 06:13:53;;;;;;;19.67;8.32;;;;;;;25.91;43.09;99017.16;5048764;28;20076;-78
2022/08/19 06:16:22;;;;;;;19.92;7.40;;;;;;;26.20;42.74;99017.16;5053331;28;20032;-79
2022/08/19 06:18:51;;;;;;;24.67;9.05;;;;;;;26.31;41.84;99001.72;5036163;28;20031;-73
2022/08/19 06:21:18;;;;;;;11.38;7.75;;;;;;;26.53;42.14;99021.94;5041354;28;20025;-73
2022/08/19 06:23:44;;;;;;;9.93;7.45;;;;;;;26.61;40.75;99011.06;5045431;28;20060;-74
2022/08/19 06:26:15;;;;;;;11.70;8.18;;;;;;;26.77;40.67;99024.50;5031836;28;20135;-73
2022/08/19 06:28:46;;;;;;;10.35;6.80;;;;;;;26.41;42.04;99017.00;5051943;28;20032;-74
2022/08/19 06:31:16;;;;;;;9.07;7.25;;;;;;;26.60;42.28;99020.91;5054279;28;20021;-73
2022/08/19 06:33:43;;;;;;;10.98;7.40;;;;;;;26.83;41.87;99024.72;5051695;28;20024;-74
2022/08/19 06:36:33;;;;;;;13.07;8.23;;;;;;;26.99;40.56;99018.91;5052173;28;20017;-73
2022/08/19 06:39:10;;;;;;;15.73;8.75;;;;;;;27.12;40.65;99027.50;5040923;28;20028;-73
2022/08/19 06:41:38;;;;;;;9.55;8.02;;;;;;;27.06;40.28;99026.47;5029258;28;20104;-73
2022/08/19 06:44:04;;;;;;;11.05;8.05;;;;;;;27.17;40.60;99021.19;5015106;28;20545;-78
2022/08/19 06:46:30;;;;;;;11.35;7.72;;;;;;;27.26;39.73;99022.56;5015117;28;20075;-71
2022/08/19 06:48:56;;;;;;;10.65;8.13;;;;;;;27.25;41.31;99020.94;5015236;28;20029;-74
2022/08/19 06:51:23;;;;;;;41.88;10.05;;;;;;;27.52;41.58;99026.19;5019108;28;20026;-73
2022/08/19 06:53:51;;;;;;;9.48;7.18;;;;;;;27.63;40.79;99020.09;5013326;28;20024;-74
2022/08/19 06:56:20;;;;;;;8.68;7.82;;;;;;;27.99;40.00;99009.38;5013457;28;20032;-74
2022/08/19 06:58:46;;;;;;;10.50;8.05;;;;;;;27.56;40.25;99014.59;5013012;28;20017;-73
2022/08/19 07:01:12;;;;;;;9.73;8.70;;;;;;;27.64;40.44;99015.94;5015010;28;20455;-73
2022/08/19 07:03:39;;;;;;;12.15;7.90;;;;;;;27.68;41.06;99013.75;5032780;28;20029;-74
2022/08/19 07:06:10;;;;;;;15.90;8.80;;;;;;;27.89;40.71;99017.94;5033124;28;20030;-73
2022/08/19 07:08:36;;;;;;;14.00;8.55;;;;;;;28.03;39.52;99013.72;5032654;28;20023;-74
2022/08/19 07:11:06;;;;;;;9.63;8.63;;;;;;;27.53;40.03;99013.47;5011717;28;20030;-74
2022/08/19 07:13:36;;;;;;;8.82;7.78;;;;;;;27.92;39.29;99003.91;5016812;28;20038;-74
2022/08/19 07:16:14;;;;;;;12.55;8.07;;;;;;;28.20;39.36;99007.81;5019421;28;20050;-74
2022/08/19 07:18:40;;;;;;;9.30;7.57;;;;;;;28.34;38.02;99005.66;5028558;28;20033;-73
2022/08/19 07:21:21;;;;;;;10.52;8.43;;;;;;;28.54;38.59;99006.13;5031377;28;20451;-73
2022/08/19 07:23:47;;;;;;;14.48;8.32;;;;;;;28.63;38.49;98999.63;5032491;28;20113;-74
2022/08/19 07:26:24;;;;;;;8.75;7.45;;;;;;;28.88;37.52;99002.78;5032685;28;20511;-73
2022/08/19 07:28:49;;;;;;;15.20;7.85;;;;;;;28.31;38.94;99001.66;5032519;28;20024;-73
2022/08/19 07:31:18;;;;;;;12.38;9.32;;;;;;;28.61;38.03;98999.28;5014241;28;20021;-73
2022/08/19 07:33:45;;;;;;;9.40;8.00;;;;;;;28.88;37.59;98997.84;5013699;28;20404;-73
2022/08/19 07:36:13;;;;;;;13.38;7.78;;;;;;;29.25;38.47;98997.94;5032357;28;20025;-75
2022/08/19 07:38:41;;;;;;;10.20;8.02;;;;;;;29.28;37.94;98999.09;5013835;28;20403;-73
2022/08/19 07:41:09;;;;;;;10.63;7.63;;;;;;;29.51;37.68;99000.59;5032908;28;20527;-73
2022/08/19 07:43:34;;;;;;;8.82;7.93;;;;;;;29.68;36.71;99003.16;5032887;28;20033;-73
2022/08/19 07:46:00;;;;;;;10.50;7.70;;;;;;;30.04;37.06;99001.59;4994775;28;20475;-73
2022/08/19 07:48:28;;;;;;;10.50;8.55;;;;;;;30.32;35.80;99004.44;5028576;28;20460;-73
2022/08/19 07:51:01;;;;;;;10.80;8.40;;;;;;;30.29;36.16;98993.88;5032186;28;20100;-75
2022/08/19 07:53:27;;;;;;;10.73;7.45;;;;;;;30.08;35.40;98996.47;5017148;28;20104;-73
2022/08/19 07:55:53;;;;;;;11.30;7.90;;;;;;;30.37;35.03;98992.25;5031794;28;20039;-74
2022/08/19 07:58:21;;;;;;;12.25;8.93;;;;;;;30.62;35.21;98993.13;5029846;28;20033;-76
2022/08/19 08:00:49;;;;;;;16.92;8.43;;;;;;;30.95;36.43;98992.41;5010146;28;20032;-73
2022/08/19 08:03:17;;;;;;;21.42;8.73;;;;;;;31.26;35.60;98990.50;5012504;28;20493;-73
2022/08/19 08:11:04;;;;;;;14.35;9.63;;;;;;;31.35;34.54;98995.41;5020733;28;20095;-74
2022/08/19 08:13:30;;;;;;;19.42;12.50;;;;;;;31.40;33.57;98999.72;5010025;28;20048;-73
2022/08/19 08:15:56;;;;;;;17.45;8.68;;;;;;;31.50;34.63;98995.50;5026662;28;20033;-73
2022/08/19 08:18:23;;;;;;;20.60;12.25;;;;;;;31.44;33.97;98992.47;5018369;28;20601;-74
2022/08/19 08:20:49;;;;;;;13.70;7.85;;;;;;;31.42;34.69;98989.28;5000562;28;20098;-73
2022/08/19 08:23:26;;;;;;;25.23;18.33;;;;;;;31.58;34.13;98984.34;5031917;28;20457;-74
2022/08/19 08:25:57;;;;;;;10.57;7.72;;;;;;;31.52;34.50;98985.03;5030742;28;20104;-74
2022/08/19 08:28:23;;;;;;;9.60;7.93;;;;;;;31.61;33.37;98971.81;5026308;28;20030;-73
2022/08/19 08:30:50;;;;;;;17.63;7.68;;;;;;;31.80;33.44;98972.50;5008237;28;20133;-73
2022/08/19 08:33:24;;;;;;;65.72;59.15;;;;;;;32.08;33.03;98969.34;5013258;28;20061;-74
2022/08/19 08:35:50;;;;;;;24.30;13.77;;;;;;;32.11;33.45;98967.56;5031001;28;20038;-73
2022/08/19 08:38:17;;;;;;;11.05;7.55;;;;;;;32.02;32.46;98969.25;5031229;28;20481;-73
2022/08/19 08:40:53;;;;;;;15.75;9.07;;;;;;;32.13;31.90;98967.88;5023820;28;20061;-73
2022/08/19 08:43:30;;;;;;;24.42;13.15;;;;;;;32.41;32.04;98967.59;5039710;28;20469;-73
2022/08/19 08:46:04;;;;;;;10.25;8.13;;;;;;;32.66;31.72;98954.59;5031188;28;20035;-73
2022/08/19 08:48:50;;;;;;;9.23;7.05;;;;;;;32.66;31.78;98962.47;5031507;28;20048;-73
2022/08/19 08:51:26;;;;;;;21.65;11.60;;;;;;;32.69;31.51;98953.59;5049541;28;20466;-73
2022/08/19 08:53:53;;;;;;;22.08;19.88;;;;;;;32.91;31.60;98947.38;5032772;28;20021;-73
2022/08/19 08:56:19;;;;;;;132.63;118.65;;;;;;;33.08;30.71;98955.53;5050437;28;20033;-72
2022/08/19 08:58:51;;;;;;;17.67;11.15;;;;;;;32.98;30.60;98945.38;5032855;28;20081;-72
2022/08/19 09:01:17;;;;;;;10.38;8.00;;;;;;;33.10;30.19;98941.34;5032810;28;20041;-73
2022/08/19 09:03:45;;;;;;;24.85;7.30;;;;;;;33.22;30.62;98948.06;5029127;28;20041;-74
2022/08/19 09:06:31;;;;;;;14.30;6.55;;;;;;;33.21;29.22;98942.81;5032901;28;20547;-74
2022/08/19 09:09:03;;;;;;;10.10;6.50;;;;;;;33.18;29.24;98944.59;5022325;28;20044;-74
2022/08/19 09:11:52;;;;;;;27.83;23.50;;;;;;;33.45;30.50;98942.59;5044588;28;20567;-76
2022/08/19 09:14:54;;;;;;;10.50;8.00;;;;;;;33.47;29.97;98937.09;5042307;28;20035;-76
2022/08/19 09:17:33;;;;;;;8.75;6.88;;;;;;;33.45;29.18;98931.81;4991094;28;20045;-75
2022/08/19 09:20:22;;;;;;;23.30;11.33;;;;;;;33.65;27.56;98941.00;5041340;28;20119;-74
2022/08/19 09:22:49;;;;;;;10.77;6.60;;;;;;;33.69;27.99;98935.78;5031735;28;20575;-74
2022/08/19 09:25:18;;;;;;;7.20;5.90;;;;;;;33.96;27.21;98928.69;5032391;28;20462;-74
2022/08/19 09:27:44;;;;;;;9.38;6.13;;;;;;;33.92;26.83;98930.22;5038837;28;20074;-75
2022/08/19 09:30:24;;;;;;;6.88;5.47;;;;;;;34.03;26.76;98933.28;5049954;28;20037;-74
2022/08/19 09:32:52;;;;;;;9.15;5.90;;;;;;;34.10;26.68;98920.44;5042470;28;20408;-74
2022/08/19 09:35:18;;;;;;;10.98;7.45;;;;;;;34.01;25.96;98921.41;5032928;28;20052;-72
2022/08/19 09:37:44;;;;;;;6.70;6.03;;;;;;;34.04;26.63;98922.50;5033515;28;20041;-73
2022/08/19 09:40:11;;;;;;;7.85;6.00;;;;;;;33.70;27.34;98912.09;5051482;28;20115;-74
2022/08/19 09:42:37;;;;;;;7.10;6.30;;;;;;;33.28;27.65;98916.28;5050861;28;20095;-73
2022/08/19 09:45:03;;;;;;;15.63;6.50;;;;;;;33.41;28.23;98915.94;5051303;28;20021;-75
2022/08/19 09:47:29;;;;;;;12.15;6.70;;;;;;;33.54;27.75;98906.88;5050195;28;20459;-74
2022/08/19 09:49:54;;;;;;;14.38;6.53;;;;;;;33.81;27.50;98899.03;5033077;28;20139;-74
2022/08/19 09:52:20;;;;;;;9.82;6.07;;;;;;;34.09;27.11;98902.25;5033791;28;20502;-73
2022/08/19 09:54:46;;;;;;;9.77;6.20;;;;;;;34.45;26.02;98904.91;5051291;28;20037;-72
2022/08/19 09:57:11;;;;;;;33.13;6.65;;;;;;;34.91;25.66;98899.44;5051476;28;20162;-77
2022/08/19 09:59:39;;;;;;;7.32;6.63;;;;;;;35.00;24.96;98902.16;5033615;28;20691;-74
2022/08/19 10:02:04;;;;;;;17.38;6.43;;;;;;;34.88;25.85;98897.59;5033346;28;20032;-74
2022/08/19 10:07:15;;;;;;;6.07;5.47;;;;;;;35.04;25.60;98891.09;5018202;28;20045;-74
2022/08/19 10:09:41;;;;;;;8.90;6.75;;;;;;;35.25;25.24;98880.09;5050895;28;20036;-73
2022/08/19 10:12:08;;;;;;;9.10;7.40;;;;;;;35.53;25.12;98885.22;5033199;28;20100;-76
2022/08/19 10:14:34;;;;;;;7.00;5.15;;;;;;;35.44;24.60;98875.94;5050944;28;20021;-77
2022/08/19 10:17:02;;;;;;;7.47;6.15;;;;;;;35.32;24.24;98875.13;5045894;28;20472;-74
2022/08/19 10:19:32;;;;;;;9.20;6.47;;;;;;;35.51;25.22;98878.34;5027858;28;20047;-73
2022/08/19 10:21:58;;;;;;;7.00;6.32;;;;;;;35.73;24.90;98871.81;5047044;28;20127;-74
2022/08/19 10:24:25;;;;;;;15.18;10.68;;;;;;;35.71;23.95;98865.75;5019852;28;20055;-76
2022/08/19 10:26:50;;;;;;;10.05;6.35;;;;;;;35.84;24.16;98868.94;5049229;28;20021;-74
2022/08/19 10:29:16;;;;;;;11.18;6.35;;;;;;;35.70;23.80;98867.84;5049627;28;20108;-73
2022/08/19 10:31:42;;;;;;;10.95;5.65;;;;;;;35.59;24.72;98867.03;5053048;28;20025;-73
2022/08/19 10:34:07;;;;;;;5.65;4.88;;;;;;;35.37;24.13;98868.53;5053140;28;20462;-72
2022/08/19 10:36:36;;;;;;;7.43;5.28;;;;;;;35.80;24.42;98864.69;5052860;28;20029;-72
2022/08/19 10:39:08;;;;;;;6.28;5.63;;;;;;;36.13;23.69;98868.19;5034090;28;20113;-73
2022/08/19 10:41:37;;;;;;;8.00;5.75;;;;;;;35.96;23.61;98858.13;5031770;28;20155;-75
2022/08/19 10:44:08;;;;;;;8.32;5.45;;;;;;;35.90;24.21;98859.41;5022199;28;20176;-75
2022/08/19 10:46:37;;;;;;;5.45;4.90;;;;;;;36.37;24.00;98856.03;5042628;28;20478;-73
2022/08/19 10:49:04;;;;;;;6.30;5.53;;;;;;;36.34;23.48;98860.78;5029355;28;20033;-73
2022/08/19 10:54:16;;;;;;;6.90;5.53;;;;;;;36.29;23.67;98854.97;5052468;28;20036;-73
2022/08/19 10:56:51;;;;;;;22.23;5.40;;;;;;;36.35;23.14;98847.03;5049974;28;20096;-73
2022/08/19 10:59:25;;;;;;;14.00;6.45;;;;;;;36.52;23.67;98849.91;5051385;28;20024;-73
2022/08/19 11:01:51;;;;;;;12.48;5.32;;;;;;;36.53;23.37;98846.47;5050165;28;20541;-75
2022/08/19 11:04:18;;;;;;;9.13;5.30;;;;;;;36.64;23.31;98842.78;5033412;28;20089;-73
2022/08/19 11:06:47;;;;;;;19.08;5.53;;;;;;;36.71;22.92;98844.34;5045691;28;20028;-72
2022/08/19 11:09:18;;;;;;;9.38;5.03;;;;;;;36.94;22.21;98841.38;5048983;28;20025;-75
2022/08/19 11:11:43;;;;;;;12.82;5.03;;;;;;;36.93;22.43;98828.91;5048582;28;20404;-73
2022/08/19 11:14:11;;;;;;;10.32;6.15;;;;;;;37.00;22.65;98833.38;5048341;28;20075;-73
2022/08/19 11:16:38;;;;;;;6.32;5.40;;;;;;;36.88;22.13;98841.41;5032945;28;20032;-73
2022/08/19 11:19:07;;;;;;;13.32;5.53;;;;;;;36.84;22.00;98813.88;5032221;28;20025;-73
2022/08/19 11:21:35;;;;;;;6.65;4.97;;;;;;;36.86;22.58;98825.78;5050710;28;20056;-74
2022/08/19 11:24:05;;;;;;;10.60;4.80;;;;;;;36.87;22.72;98824.44;5032085;28;20470;-73
2022/08/19 11:26:32;;;;;;;9.38;5.20;;;;;;;36.99;22.64;98825.19;5049607;28;20036;-73
2022/08/19 11:28:58;;;;;;;5.47;5.07;;;;;;;36.81;22.51;98819.44;5047084;28;20025;-73
2022/08/19 11:31:27;;;;;;;10.07;5.35;;;;;;;36.78;22.33;98826.31;5032192;28;20024;-73
2022/08/19 11:33:53;;;;;;;10.00;4.82;;;;;;;36.83;23.00;98813.06;5050079;28;20103;-73
2022/08/19 11:36:21;;;;;;;6.13;4.93;;;;;;;36.55;22.40;98811.03;5043291;28;20037;-74
2022/08/19 11:38:50;;;;;;;9.88;5.80;;;;;;;36.85;22.40;98803.78;5048070;28;20025;-73
2022/08/19 11:41:19;;;;;;;6.13;5.30;;;;;;;37.18;22.48;98811.63;5050744;28;20524;-73
2022/08/19 11:43:44;;;;;;;8.13;5.63;;;;;;;37.21;22.45;98803.94;5050043;28;20551;-73
2022/08/19 11:46:12;;;;;;;6.28;5.05;;;;;;;36.99;22.43;98799.75;5050017;28;20107;-74
2022/08/19 11:48:39;;;;;;;6.07;5.43;;;;;;;36.90;22.60;98802.97;5048065;28;20060;-73
2022/08/19 11:51:12;;;;;;;10.60;5.05;;;;;;;37.04;22.52;98801.88;5032121;28;20029;-73
2022/08/19 11:53:38;;;;;;;5.30;4.78;;;;;;;37.19;22.08;98806.59;5030364;28;20025;-73